Time;durP1;ratioP1;P1;durP2;ratioP2;P2;SDS_P1;SDS_P2;PMS_P1;PMS_P2;Temp;Humidity;BMP_temperature;BMP_pressure;BME280_temperature;BME280_humidity;BME280_pressure;Samples;Min_cycle;Max_cycle;Signal;HPM_P1;HPM_P2
2021/12/22 00:02:17;;;;;;;28.98;13.63;;;;;;;-1.46;100.00;101628.78;8418682;28;20539;-63
2021/12/22 00:06:19;;;;;;;29.65;13.57;;;;;;;-1.48;100.00;101622.66;8386419;28;20039;-63
2021/12/22 00:10:21;;;;;;;36.67;13.02;;;;;;;-1.52;100.00;101630.72;8371658;28;20028;-64
2021/12/22 00:14:21;;;;;;;29.95;13.65;;;;;;;-1.51;100.00;101612.13;8387844;28;20040;-64
2021/12/22 00:18:21;;;;;;;29.35;15.00;;;;;;;-1.52;100.00;101620.09;8374243;28;20048;-64
2021/12/22 00:22:22;;;;;;;24.63;12.15;;;;;;;-1.54;100.00;101606.00;8387510;28;20036;-64
2021/12/22 00:26:22;;;;;;;28.83;13.90;;;;;;;-1.56;100.00;101600.75;8390870;28;20037;-64
2021/12/22 00:30:24;;;;;;;26.42;14.20;;;;;;;-1.66;100.00;101593.94;8379119;28;20381;-64
2021/12/22 00:34:26;;;;;;;30.98;15.40;;;;;;;-1.72;100.00;101602.03;8356811;28;20063;-64
2021/12/22 00:38:27;;;;;;;34.13;14.73;;;;;;;-1.73;100.00;101597.66;8322493;28;20116;-64
2021/12/22 00:42:27;;;;;;;28.48;12.50;;;;;;;-1.71;100.00;101598.47;8361213;28;20044;-64
2021/12/22 00:46:28;;;;;;;31.90;13.57;;;;;;;-1.75;100.00;101599.47;8369647;28;20048;-64
2021/12/22 00:50:29;;;;;;;29.27;13.27;;;;;;;-1.76;100.00;101603.03;8369165;28;20032;-64
2021/12/22 00:54:29;;;;;;;26.92;12.95;;;;;;;-1.71;100.00;101605.56;8388956;28;20048;-64
2021/12/22 00:58:30;;;;;;;29.35;11.82;;;;;;;-1.73;100.00;101605.59;8375363;28;20064;-64
2021/12/22 01:02:30;;;;;;;32.67;14.57;;;;;;;-1.83;100.00;101588.16;8348098;28;20128;-64
2021/12/22 01:06:31;;;;;;;32.58;13.18;;;;;;;-1.81;100.00;101591.66;8349635;28;20390;-64
2021/12/22 01:10:32;;;;;;;36.28;12.77;;;;;;;-1.83;100.00;101593.47;8362619;28;20049;-64
2021/12/22 01:14:33;;;;;;;32.72;12.88;;;;;;;-1.90;100.00;101591.88;8346080;28;20081;-64
2021/12/22 01:18:35;;;;;;;32.92;14.27;;;;;;;-1.84;100.00;101599.69;8348008;28;20488;-64
2021/12/22 01:26:50;;;;;;;28.23;13.05;;;;;;;-1.90;100.00;101591.88;8381811;28;20054;-64
2021/12/22 01:30:50;;;;;;;28.75;13.50;;;;;;;-1.90;100.00;101591.03;8383062;28;20471;-64
2021/12/22 01:34:51;;;;;;;33.42;13.57;;;;;;;-1.80;100.00;101601.34;8384105;28;20028;-64
2021/12/22 01:38:51;;;;;;;28.33;13.07;;;;;;;-1.67;100.00;101600.16;8385884;28;20033;-64
2021/12/22 01:42:55;;;;;;;30.83;13.77;;;;;;;-1.58;100.00;101605.22;8377945;28;20059;-64
2021/12/22 01:51:17;;;;;;;36.13;15.27;;;;;;;-1.65;100.00;101602.78;8376451;28;20045;-64
2021/12/22 01:55:27;;;;;;;32.90;14.20;;;;;;;-1.62;100.00;101614.16;8352175;28;20128;-64
2021/12/22 01:59:29;;;;;;;34.47;16.33;;;;;;;-1.55;100.00;101607.81;8350227;28;20037;-64
2021/12/22 02:03:29;;;;;;;25.40;13.35;;;;;;;-1.61;100.00;101615.91;8365582;28;20057;-64
2021/12/22 02:07:29;;;;;;;32.70;12.93;;;;;;;-1.59;100.00;101614.06;8389293;28;20036;-64
2021/12/22 02:11:31;;;;;;;30.13;14.30;;;;;;;-1.62;100.00;101611.50;8389709;28;20322;-64
2021/12/22 02:15:34;;;;;;;29.95;13.75;;;;;;;-1.56;100.00;101614.00;8390656;28;20067;-64
2021/12/22 02:19:38;;;;;;;32.27;14.90;;;;;;;-1.51;100.00;101614.75;8390024;28;20036;-64
2021/12/22 02:23:39;;;;;;;36.38;14.40;;;;;;;-1.40;100.00;101618.00;8388690;28;20213;-64
2021/12/22 02:27:47;;;;;;;41.28;16.50;;;;;;;-1.39;100.00;101617.09;8393006;28;20396;-64
2021/12/22 02:32:06;;;;;;;31.95;15.45;;;;;;;-1.40;100.00;101623.31;8380580;28;20089;-64
2021/12/22 02:36:29;;;;;;;42.50;16.25;;;;;;;-1.39;100.00;101617.09;8389725;28;20033;-64
2021/12/22 02:40:30;;;;;;;31.83;15.98;;;;;;;-1.36;100.00;101606.44;8376034;28;20045;-64
2021/12/22 02:44:30;;;;;;;30.13;16.63;;;;;;;-1.39;100.00;101585.28;8362471;28;20037;-64
2021/12/22 02:48:32;;;;;;;38.80;15.70;;;;;;;-1.47;100.00;101592.56;8394494;28;20060;-63
2021/12/22 02:52:46;;;;;;;34.90;16.25;;;;;;;-1.49;100.00;101583.78;8393421;28;20064;-63
2021/12/22 03:05:19;;;;;;;37.70;15.32;;;;;;;-1.48;100.00;101572.28;8420016;28;20645;-64
2021/12/22 03:09:23;;;;;;;32.42;14.45;;;;;;;-1.48;100.00;101574.91;8434298;28;20036;-65
2021/12/22 03:13:24;;;;;;;35.78;15.32;;;;;;;-1.43;100.00;101572.16;8410231;28;20044;-65
2021/12/22 03:17:24;;;;;;;37.13;15.60;;;;;;;-1.58;100.00;101576.06;8399958;28;20063;-65
2021/12/22 03:21:25;;;;;;;30.80;14.38;;;;;;;-1.64;100.00;101576.22;8397294;28;20043;-65
2021/12/22 03:25:27;;;;;;;31.33;13.88;;;;;;;-1.71;100.00;101571.13;8401558;28;20579;-64
2021/12/22 03:29:29;;;;;;;33.60;14.05;;;;;;;-1.67;100.00;101588.66;8388295;28;20032;-64
2021/12/22 03:33:29;;;;;;;34.63;14.98;;;;;;;-1.68;100.00;101582.50;8374319;28;20036;-64
2021/12/22 03:37:29;;;;;;;37.35;13.80;;;;;;;-1.69;100.00;101575.47;8395221;28;20120;-64
2021/12/22 03:41:30;;;;;;;31.67;14.32;;;;;;;-1.70;100.00;101573.72;8380677;28;20037;-65
2021/12/22 03:45:30;;;;;;;30.70;13.65;;;;;;;-1.79;100.00;101573.06;8394730;28;20040;-65
2021/12/22 03:49:31;;;;;;;30.50;14.38;;;;;;;-1.86;100.00;101567.03;8394055;28;20037;-65
2021/12/22 03:53:31;;;;;;;34.28;15.82;;;;;;;-1.92;100.00;101566.34;8366447;28;20045;-65
2021/12/22 03:57:31;;;;;;;33.13;15.02;;;;;;;-1.94;100.00;101574.31;8367105;28;20037;-65
2021/12/22 04:01:33;;;;;;;26.63;13.75;;;;;;;-1.96;100.00;101576.13;8364673;28;20048;-65
2021/12/22 04:05:33;;;;;;;31.33;14.15;;;;;;;-2.00;100.00;101574.47;8364841;28;20049;-65
2021/12/22 04:09:34;;;;;;;32.38;13.55;;;;;;;-2.01;100.00;101578.03;8359047;28;20102;-64
2021/12/22 04:13:34;;;;;;;32.67;13.55;;;;;;;-2.02;100.00;101579.81;8340084;28;20041;-64
2021/12/22 04:17:35;;;;;;;36.72;14.57;;;;;;;-1.96;100.00;101578.78;8343810;28;20041;-64
2021/12/22 04:21:35;;;;;;;30.90;11.75;;;;;;;-1.98;100.00;101578.81;8366854;28;20044;-65
2021/12/22 04:25:36;;;;;;;33.78;13.90;;;;;;;-1.90;100.00;101583.94;8347100;28;20246;-65
2021/12/22 04:29:37;;;;;;;32.10;13.98;;;;;;;-1.96;100.00;101586.72;8329894;28;20036;-65
2021/12/22 04:33:37;;;;;;;31.85;13.02;;;;;;;-2.02;100.00;101590.41;8342977;28;20041;-64
2021/12/22 04:37:37;;;;;;;28.17;13.30;;;;;;;-2.06;100.00;101598.44;8341877;28;20033;-64
2021/12/22 04:41:38;;;;;;;23.27;10.93;;;;;;;-2.10;100.00;101594.97;8341940;28;20041;-65
2021/12/22 04:45:39;;;;;;;26.85;12.63;;;;;;;-2.07;100.00;101605.50;8344865;28;20171;-65
2021/12/22 04:49:40;;;;;;;32.83;14.05;;;;;;;-2.03;100.00;101598.38;8362259;28;20057;-65
2021/12/22 04:53:51;;;;;;;33.55;13.80;;;;;;;-2.09;100.00;101599.41;8374176;28;20046;-68
2021/12/22 04:57:55;;;;;;;35.88;16.35;;;;;;;-2.09;100.00;101601.16;8376318;28;20041;-65
2021/12/22 05:01:57;;;;;;;41.47;17.58;;;;;;;-2.09;100.00;101601.16;8376048;28;20132;-64
2021/12/22 05:05:57;;;;;;;39.75;15.80;;;;;;;-2.12;100.00;101593.28;8381744;28;20033;-64
2021/12/22 05:09:58;;;;;;;33.17;15.25;;;;;;;-2.04;100.00;101588.69;8360696;28;20032;-64
2021/12/22 05:13:58;;;;;;;42.88;18.75;;;;;;;-2.04;100.00;101588.69;8360778;28;20124;-65
2021/12/22 05:22:02;;;;;;;44.90;18.93;;;;;;;-1.90;100.00;101581.28;8370427;28;20068;-65
2021/12/22 05:26:02;;;;;;;40.05;17.40;;;;;;;-1.87;100.00;101589.16;8364922;28;20040;-65
2021/12/22 05:30:05;;;;;;;43.05;17.73;;;;;;;-1.79;100.00;101597.81;8360125;28;20036;-65
2021/12/22 05:34:06;;;;;;;43.63;17.30;;;;;;;-1.81;100.00;101586.34;8360107;28;20028;-65
2021/12/22 05:38:06;;;;;;;41.85;18.75;;;;;;;-1.68;100.00;101581.63;8371574;28;20571;-65
2021/12/22 05:42:07;;;;;;;37.20;17.70;;;;;;;-1.70;100.00;101584.34;8356349;28;20127;-65
2021/12/22 05:46:07;;;;;;;42.53;17.95;;;;;;;-1.72;100.00;101586.13;8358867;28;20049;-65
2021/12/22 05:50:08;;;;;;;42.78;17.63;;;;;;;-1.69;100.00;101574.56;8358177;28;20036;-65
2021/12/22 05:54:09;;;;;;;39.22;18.00;;;;;;;-1.77;100.00;101569.47;8387996;28;20025;-65
2021/12/22 05:58:09;;;;;;;35.60;16.15;;;;;;;-1.78;100.00;101565.09;8360205;28;20033;-65
2021/12/22 06:02:09;;;;;;;43.67;17.92;;;;;;;-1.72;100.00;101559.63;8353734;28;20044;-65
2021/12/22 06:06:11;;;;;;;43.28;18.08;;;;;;;-1.67;100.00;101578.94;8358833;28;20029;-65
2021/12/22 06:10:11;;;;;;;44.35;19.05;;;;;;;-1.67;100.00;101578.06;8355906;28;20037;-65
2021/12/22 06:14:11;;;;;;;46.40;19.02;;;;;;;-1.70;100.00;101579.03;8352688;28;20121;-65
2021/12/22 06:18:12;;;;;;;40.95;17.30;;;;;;;-1.67;100.00;101578.06;8338226;28;20053;-65
2021/12/22 06:22:13;;;;;;;45.47;20.33;;;;;;;-1.73;100.00;101568.50;8355134;28;20506;-65
2021/12/22 06:26:13;;;;;;;40.30;18.45;;;;;;;-1.71;100.00;101566.66;8343441;28;20052;-65
2021/12/22 06:30:14;;;;;;;68.82;28.15;;;;;;;-1.65;100.00;101563.84;8339352;28;20091;-65
2021/12/22 06:34:15;;;;;;;59.88;28.15;;;;;;;-1.65;100.00;101558.56;8340158;28;20333;-65
2021/12/22 06:38:15;;;;;;;56.78;26.00;;;;;;;-1.43;100.00;101556.25;8363460;28;20426;-65
2021/12/22 06:42:16;;;;;;;62.85;25.48;;;;;;;-1.50;100.00;101560.81;8367716;28;20041;-64
2021/12/22 06:46:16;;;;;;;44.13;21.83;;;;;;;-1.57;100.00;101558.38;8364534;28;20609;-64
2021/12/22 06:50:17;;;;;;;43.40;21.58;;;;;;;-1.63;100.00;101559.41;8367502;28;20041;-64
2021/12/22 06:54:18;;;;;;;46.47;19.77;;;;;;;-1.66;100.00;101564.78;8353371;28;20041;-64
2021/12/22 06:58:18;;;;;;;42.60;18.40;;;;;;;-1.64;100.00;101572.69;8359249;28;20098;-64
2021/12/22 07:02:19;;;;;;;45.83;21.33;;;;;;;-1.69;100.00;101575.47;8360989;28;20515;-64
2021/12/22 07:06:19;;;;;;;42.35;19.88;;;;;;;-1.71;100.00;101582.56;8354089;28;20076;-64
2021/12/22 07:10:20;;;;;;;43.88;20.70;;;;;;;-1.68;100.00;101566.59;8361295;28;20048;-64
2021/12/22 07:14:20;;;;;;;40.17;19.05;;;;;;;-1.71;100.00;101566.66;8363953;28;20051;-64
2021/12/22 07:18:21;;;;;;;40.58;17.92;;;;;;;-1.81;100.00;101564.28;8352758;28;20041;-64
2021/12/22 07:22:21;;;;;;;35.65;16.77;;;;;;;-1.80;100.00;101556.28;8362864;28;20437;-64
2021/12/22 07:26:22;;;;;;;34.50;16.27;;;;;;;-1.86;100.00;101551.13;8343159;28;20037;-64
2021/12/22 07:30:22;;;;;;;40.78;17.83;;;;;;;-1.85;100.00;101555.56;8340858;28;20385;-64
2021/12/22 07:42:51;;;;;;;37.13;16.60;;;;;;;-1.85;100.00;101547.59;8390928;27;20361;-64
2021/12/22 07:46:52;;;;;;;36.03;16.50;;;;;;;-1.92;100.00;101547.78;8361587;28;20033;-64
2021/12/22 07:50:52;;;;;;;36.38;16.85;;;;;;;-1.86;100.00;101548.50;8360416;28;20040;-64
2021/12/22 07:54:54;;;;;;;40.58;18.42;;;;;;;-1.80;100.00;101548.34;8388362;28;20040;-63
2021/12/22 07:58:55;;;;;;;42.88;17.92;;;;;;;-1.67;100.00;101559.50;8345924;28;20041;-63
2021/12/22 08:02:56;;;;;;;39.28;17.17;;;;;;;-1.59;100.00;101560.22;8367389;28;20061;-63
2021/12/22 08:06:56;;;;;;;36.38;17.95;;;;;;;-1.52;100.00;101567.97;8386583;28;20090;-63
2021/12/22 08:10:56;;;;;;;37.75;16.65;;;;;;;-1.49;100.00;101565.22;8328747;28;20127;-63
2021/12/22 08:14:57;;;;;;;36.05;16.70;;;;;;;-1.44;100.00;101562.47;8324758;28;20052;-63
2021/12/22 08:18:57;;;;;;;38.42;17.90;;;;;;;-1.51;100.00;101555.56;8330934;28;20113;-63
2021/12/22 08:22:58;;;;;;;34.90;16.98;;;;;;;-1.46;100.00;101558.97;8328548;28;20122;-63
2021/12/22 08:26:59;;;;;;;42.72;19.13;;;;;;;-1.36;100.00;101558.69;8367803;28;20041;-63
2021/12/22 08:30:59;;;;;;;34.55;16.77;;;;;;;-1.28;100.00;101556.69;8362493;28;20044;-63
2021/12/22 08:35:02;;;;;;;42.10;18.25;;;;;;;-1.23;100.00;101548.59;8374358;28;20579;-63
2021/12/22 08:39:05;;;;;;;45.72;19.63;;;;;;;-0.92;100.00;101553.03;8373472;28;20036;-63
2021/12/22 08:43:05;;;;;;;47.05;19.42;;;;;;;-0.33;99.25;101538.84;8373782;28;20069;-63
2021/12/22 08:47:06;;;;;;;39.05;19.15;;;;;;;-0.04;96.69;101544.13;8340232;28;20268;-64
2021/12/22 08:51:07;;;;;;;38.40;17.80;;;;;;;0.48;93.74;101537.94;8357034;28;20140;-64
2021/12/22 08:55:08;;;;;;;29.25;15.18;;;;;;;0.94;91.63;101542.50;8348040;28;20063;-64
2021/12/22 08:59:11;;;;;;;33.78;15.55;;;;;;;1.04;90.42;101546.59;8330221;28;20056;-64
2021/12/22 09:03:12;;;;;;;30.05;14.52;;;;;;;1.53;89.00;101546.50;8322252;28;20056;-64
2021/12/22 09:07:12;;;;;;;29.30;14.63;;;;;;;1.71;87.40;101537.78;8353035;28;20132;-64
2021/12/22 09:11:13;;;;;;;23.98;13.63;;;;;;;1.86;86.88;101545.19;8351757;28;20041;-64
2021/12/22 09:15:17;;;;;;;27.80;12.55;;;;;;;1.88;86.98;101537.97;8352905;28;20113;-64
2021/12/22 09:19:17;;;;;;;28.30;14.23;;;;;;;1.30;89.68;101546.47;8325673;28;20455;-64
2021/12/22 09:23:18;;;;;;;30.25;14.93;;;;;;;1.71;88.34;101543.13;8340774;28;20048;-64
2021/12/22 09:27:18;;;;;;;32.92;14.82;;;;;;;2.41;84.86;101533.97;8352350;28;20056;-64
2021/12/22 09:31:19;;;;;;;26.27;13.80;;;;;;;2.34;85.02;101529.84;8324483;28;20051;-64
2021/12/22 09:35:21;;;;;;;27.42;14.27;;;;;;;2.47;84.21;101528.38;8353118;28;20051;-64
2021/12/22 09:39:21;;;;;;;25.95;13.40;;;;;;;2.77;83.19;101527.06;8353035;28;20033;-64
2021/12/22 09:43:22;;;;;;;26.38;13.32;;;;;;;3.76;80.90;101535.81;8352545;28;20563;-64
2021/12/22 09:47:28;;;;;;;22.05;12.10;;;;;;;4.32;77.97;101534.84;8350347;28;20037;-64
2021/12/22 09:55:41;;;;;;;25.17;12.07;;;;;;;3.77;78.38;101532.22;8477220;27;20120;-64
2021/12/22 09:59:42;;;;;;;22.65;12.48;;;;;;;3.45;79.66;101530.16;8479147;27;20138;-64
2021/12/22 10:03:43;;;;;;;22.70;11.65;;;;;;;3.38;80.83;101512.69;8477834;27;20050;-64
2021/12/22 10:07:44;;;;;;;25.08;12.77;;;;;;;3.01;81.62;101523.31;8480229;27;20563;-64
2021/12/22 10:11:45;;;;;;;30.77;12.85;;;;;;;2.86;82.22;101518.66;8479893;27;20081;-64
2021/12/22 10:15:48;;;;;;;27.23;13.43;;;;;;;3.04;82.92;101525.84;8440413;27;20403;-64
2021/12/22 10:19:48;;;;;;;29.15;12.68;;;;;;;3.02;82.53;101509.00;8436425;27;20044;-64
2021/12/22 10:23:52;;;;;;;27.63;13.18;;;;;;;3.33;81.44;101506.69;8431206;27;20066;-64
2021/12/22 10:28:09;;;;;;;29.17;14.50;;;;;;;4.09;79.21;101496.72;8458811;27;20590;-64
2021/12/22 10:32:13;;;;;;;25.60;14.50;;;;;;;4.54;76.43;101492.69;8448123;27;20243;-64
2021/12/22 10:36:18;;;;;;;25.27;13.63;;;;;;;4.26;77.70;101481.63;8444815;27;20036;-64
2021/12/22 10:40:37;;;;;;;27.33;13.40;;;;;;;4.39;77.58;101483.59;8429367;27;20028;-64
2021/12/22 10:44:40;;;;;;;30.30;14.05;;;;;;;4.19;77.43;101480.22;8440174;27;20039;-64
2021/12/22 10:49:43;;;;;;;26.53;12.77;;;;;;;3.94;78.21;101476.06;8462007;27;20032;-64
2021/12/22 10:53:04;;;;;;;29.38;14.40;;;;;;;4.74;77.66;101484.47;8451480;27;20066;-64
2021/12/22 10:57:08;;;;;;;31.52;14.20;;;;;;;5.13;75.99;101477.00;8461315;27;20043;-64
2021/12/22 11:01:14;;;;;;;30.52;15.57;;;;;;;4.43;76.79;101468.25;8459352;27;20037;-64
2021/12/22 11:05:18;;;;;;;28.15;15.57;;;;;;;3.70;79.69;101461.25;8411626;28;20116;-64
2021/12/22 11:09:19;;;;;;;30.60;14.37;;;;;;;3.66;81.55;101448.94;8436048;27;20039;-64
2021/12/22 11:13:22;;;;;;;27.67;13.82;;;;;;;3.85;79.97;101449.78;8434939;27;20046;-64
2021/12/22 11:17:23;;;;;;;27.70;13.18;;;;;;;4.12;79.21;101449.38;8439197;27;20407;-64
2021/12/22 11:21:30;;;;;;;22.27;12.45;;;;;;;4.44;77.63;101454.81;8433603;27;20036;-64
2021/12/22 11:25:31;;;;;;;25.02;12.45;;;;;;;4.56;76.87;101450.63;8437313;27;20062;-64
2021/12/22 11:29:34;;;;;;;29.27;13.13;;;;;;;4.29;76.72;101452.91;8429106;27;20126;-64
2021/12/22 11:33:35;;;;;;;21.75;11.43;;;;;;;4.79;76.80;101444.94;8429719;27;20427;-64
2021/12/22 11:37:36;;;;;;;28.88;13.82;;;;;;;5.20;77.92;101446.22;8425541;27;20060;-64
2021/12/22 11:41:43;;;;;;;24.13;12.60;;;;;;;5.28;75.37;101438.66;8424662;27;20036;-64
2021/12/22 11:45:45;;;;;;;20.13;10.98;;;;;;;5.22;75.52;101431.78;8418417;27;20031;-64
2021/12/22 11:54:09;;;;;;;24.35;11.60;;;;;;;5.08;74.72;101420.09;8396939;27;20388;-64
2021/12/22 11:58:12;;;;;;;;;;;;;;;4.79;75.80;101418.16;8401755;27;20131;-64
2021/12/22 12:02:18;;;;;;;22.45;11.80;;;;;;;4.34;76.93;101407.19;8392020;27;19920;-64
2021/12/22 12:06:21;;;;;;;17.05;10.70;;;;;;;3.85;78.06;101393.63;8376650;28;20097;-64
2021/12/22 12:10:48;;;;;;;23.88;13.05;;;;;;;3.63;79.64;101400.97;8392446;27;20056;-64
2021/12/22 12:23:31;;;;;;;25.45;12.80;;;;;;;3.81;80.31;101383.16;8364455;27;20451;-64
2021/12/22 12:31:47;;;;;;;24.70;13.25;;;;;;;3.91;79.65;101385.28;8366491;27;20693;-64
2021/12/22 12:35:53;;;;;;;23.83;12.85;;;;;;;4.02;80.03;101393.63;8379256;28;20040;-64
2021/12/22 12:39:55;;;;;;;26.25;12.60;;;;;;;3.88;79.77;101374.75;8341966;28;20120;-64
2021/12/22 12:43:58;;;;;;;23.50;11.57;;;;;;;3.77;79.17;101371.75;8351591;28;20543;-64
2021/12/22 12:48:27;;;;;;;26.57;13.33;;;;;;;3.78;79.26;101367.25;8345058;28;20124;-64
2021/12/22 12:52:28;;;;;;;21.33;12.05;;;;;;;3.96;80.09;101369.88;8359405;28;20272;-65
2021/12/22 12:56:32;;;;;;;22.00;11.80;;;;;;;3.99;79.17;101351.00;8378588;28;20297;-65
2021/12/22 13:00:45;;;;;;;31.85;13.05;;;;;;;4.08;79.58;101353.19;8378315;28;20040;-65
2021/12/22 13:04:46;;;;;;;27.02;11.23;;;;;;;4.11;78.98;101348.66;8338663;28;20029;-65
2021/12/22 13:08:46;;;;;;;22.52;12.20;;;;;;;4.01;78.47;101353.59;8378431;28;20522;-65
2021/12/22 13:12:59;;;;;;;25.65;12.02;;;;;;;3.96;79.04;101340.47;8376782;28;20048;-64
2021/12/22 13:17:00;;;;;;;21.17;12.50;;;;;;;3.85;79.06;101339.28;8376776;28;20377;-64
2021/12/22 13:21:07;;;;;;;23.02;12.43;;;;;;;3.80;79.46;101338.63;8374688;28;20061;-64
2021/12/22 13:25:15;;;;;;;23.67;12.35;;;;;;;3.71;79.66;101334.63;8366267;28;20040;-64
2021/12/22 13:29:15;;;;;;;20.83;11.95;;;;;;;3.58;80.01;101336.19;8363952;28;20424;-64
2021/12/22 13:33:21;;;;;;;24.70;12.82;;;;;;;3.53;80.66;101335.56;8361600;28;20045;-65
2021/12/22 13:37:21;;;;;;;25.73;12.52;;;;;;;3.51;79.68;101332.06;8370439;28;20030;-65
2021/12/22 13:41:28;;;;;;;28.67;14.02;;;;;;;3.51;80.17;101331.22;8355933;28;20384;-65
2021/12/22 13:45:28;;;;;;;24.10;14.25;;;;;;;3.49;80.26;101325.97;8337398;28;20509;-65
2021/12/22 13:49:29;;;;;;;27.33;12.93;;;;;;;3.37;80.44;101321.22;8348381;28;20575;-65
2021/12/22 13:53:30;;;;;;;26.35;13.02;;;;;;;3.33;80.12;101322.28;8347537;28;20487;-64
2021/12/22 13:57:31;;;;;;;31.25;15.15;;;;;;;3.31;81.08;101316.19;8346245;28;20029;-64
2021/12/22 14:06:03;;;;;;;30.45;13.63;;;;;;;3.24;80.89;101305.88;8365709;27;20386;-64
2021/12/22 14:10:11;;;;;;;26.15;14.43;;;;;;;3.26;81.28;101301.31;8361938;28;20064;-64
2021/12/22 14:14:33;;;;;;;27.75;14.80;;;;;;;3.20;81.54;101297.13;8372302;28;20495;-64
2021/12/22 14:18:34;;;;;;;28.02;13.63;;;;;;;3.10;81.61;101284.28;8399287;28;20048;-64
2021/12/22 14:22:37;;;;;;;29.60;13.80;;;;;;;3.00;82.33;101285.69;8401399;28;20055;-64
2021/12/22 14:26:48;;;;;;;30.30;14.30;;;;;;;2.98;81.85;101280.41;8396474;28;20493;-64
2021/12/22 14:30:48;;;;;;;31.98;16.33;;;;;;;2.99;81.73;101276.81;8398374;28;20487;-64
2021/12/22 14:35:11;;;;;;;30.80;15.10;;;;;;;2.97;81.84;101270.69;8399638;28;20062;-64
2021/12/22 14:39:13;;;;;;;30.15;15.82;;;;;;;2.96;82.41;101268.94;8399989;28;20086;-64
2021/12/22 14:43:14;;;;;;;70.85;28.98;;;;;;;2.94;81.72;101259.28;8398525;28;20048;-64
2021/12/22 14:47:20;;;;;;;35.80;17.95;;;;;;;2.85;82.12;101257.94;8395728;28;20146;-64
2021/12/22 14:51:22;;;;;;;29.63;13.68;;;;;;;2.85;82.61;101247.25;8396400;28;20097;-64
2021/12/22 14:55:47;;;;;;;28.80;15.70;;;;;;;2.77;83.16;101246.75;8395439;28;20086;-64
2021/12/22 14:59:48;;;;;;;31.90;15.50;;;;;;;2.70;83.21;101250.66;8395610;28;20032;-64
2021/12/22 15:03:49;;;;;;;31.67;15.88;;;;;;;2.64;83.61;101234.94;8398594;28;20052;-64
2021/12/22 15:07:50;;;;;;;32.17;16.85;;;;;;;2.58;83.67;101237.88;8397300;28;20222;-64
2021/12/22 15:11:50;;;;;;;28.17;15.63;;;;;;;2.53;83.91;101228.38;8398464;28;20508;-64
2021/12/22 15:15:51;;;;;;;30.33;15.73;;;;;;;2.49;83.86;101214.31;8381806;28;20562;-64
2021/12/22 15:19:52;;;;;;;28.30;15.07;;;;;;;2.49;83.95;101229.44;8376096;28;20730;-64
2021/12/22 15:23:53;;;;;;;33.08;16.30;;;;;;;2.43;84.22;101224.38;8373034;28;20459;-64
2021/12/22 15:27:54;;;;;;;28.90;15.55;;;;;;;2.38;84.34;101224.59;8367448;28;20539;-64
2021/12/22 15:31:54;;;;;;;28.67;16.05;;;;;;;2.37;84.22;101206.88;8373698;28;20518;-64
2021/12/22 15:35:56;;;;;;;30.58;15.82;;;;;;;2.26;84.65;101200.31;8371523;28;20047;-64
2021/12/22 15:39:56;;;;;;;26.58;15.48;;;;;;;2.19;84.82;101199.72;8371349;28;20290;-64
2021/12/22 15:43:57;;;;;;;29.88;15.73;;;;;;;2.14;85.01;101199.09;8369771;28;20234;-64
2021/12/22 15:47:58;;;;;;;36.80;16.50;;;;;;;2.07;85.51;101194.97;8371560;28;20242;-64
2021/12/22 15:51:58;;;;;;;35.35;17.25;;;;;;;2.02;85.60;101197.00;8371832;28;20051;-64
2021/12/22 15:55:58;;;;;;;33.53;17.13;;;;;;;1.96;85.66;101187.47;8372482;28;20078;-64
2021/12/22 15:59:59;;;;;;;37.75;17.15;;;;;;;1.96;85.83;101183.94;8355056;28;20340;-64
2021/12/22 16:03:59;;;;;;;32.47;18.02;;;;;;;1.94;85.19;101180.47;8372345;28;20563;-64
2021/12/22 16:08:01;;;;;;;31.10;16.63;;;;;;;1.95;85.15;101176.88;8370192;28;20102;-64
2021/12/22 16:12:03;;;;;;;32.90;17.23;;;;;;;1.94;85.13;101183.13;8355111;28;20068;-64
2021/12/22 16:16:04;;;;;;;34.63;16.55;;;;;;;1.86;85.29;101180.81;8371279;28;20067;-64
2021/12/22 16:20:06;;;;;;;30.65;15.80;;;;;;;1.84;85.83;101176.50;8373199;28;20359;-64
2021/12/22 16:24:06;;;;;;;32.00;16.65;;;;;;;1.83;85.70;101164.97;8381152;28;20596;-64
2021/12/22 16:28:06;;;;;;;30.42;15.10;;;;;;;1.80;85.77;101169.59;8374505;28;20541;-64
2021/12/22 16:32:07;;;;;;;32.97;17.48;;;;;;;1.75;86.21;101160.94;8360309;28;20047;-64
2021/12/22 16:36:08;;;;;;;32.50;17.02;;;;;;;1.70;86.21;101157.59;8370276;28;20044;-64
2021/12/22 16:40:09;;;;;;;41.35;18.60;;;;;;;1.66;86.33;101148.91;8364612;28;20507;-64
2021/12/22 16:44:10;;;;;;;32.83;15.73;;;;;;;1.58;86.77;101131.50;8376319;28;20033;-64
2021/12/22 16:48:11;;;;;;;37.63;16.77;;;;;;;1.51;86.78;101125.59;8376705;28;20539;-64
2021/12/22 16:52:11;;;;;;;37.45;18.40;;;;;;;1.56;86.62;101130.72;8377561;28;20547;-64
2021/12/22 16:56:12;;;;;;;39.47;17.50;;;;;;;1.58;86.61;101126.19;8366708;28;20040;-64
2021/12/22 17:00:12;;;;;;;35.13;16.38;;;;;;;1.66;86.29;101129.38;8358078;28;20115;-64
2021/12/22 17:04:15;;;;;;;32.60;17.35;;;;;;;1.60;86.48;101114.53;8375129;28;20040;-64
2021/12/22 17:08:17;;;;;;;32.92;17.02;;;;;;;1.51;86.87;101124.72;8372769;28;20500;-64
2021/12/22 17:12:17;;;;;;;33.47;16.95;;;;;;;1.46;86.99;101114.28;8377195;28;20123;-64
2021/12/22 17:16:18;;;;;;;35.58;19.27;;;;;;;1.44;87.63;101112.63;8376805;28;20040;-64
2021/12/22 17:20:19;;;;;;;31.05;16.73;;;;;;;1.34;87.82;101121.97;8377476;28;20041;-64
2021/12/22 17:24:19;;;;;;;37.53;19.38;;;;;;;1.37;88.20;101113.84;8360106;28;20040;-64
2021/12/22 17:28:19;;;;;;;40.42;20.40;;;;;;;1.35;87.93;101102.38;8366312;28;20323;-64
2021/12/22 17:32:20;;;;;;;36.85;19.48;;;;;;;1.32;88.13;101107.84;8358511;28;20112;-64
2021/12/22 17:36:20;;;;;;;44.47;21.23;;;;;;;1.25;88.40;101090.44;8367968;28;20048;-64
2021/12/22 17:40:22;;;;;;;43.92;22.23;;;;;;;1.26;88.20;101108.13;8376676;28;20040;-64
2021/12/22 17:44:22;;;;;;;68.75;29.15;;;;;;;1.20;88.27;101097.75;8364920;28;20369;-64
2021/12/22 17:48:23;;;;;;;52.88;24.77;;;;;;;1.13;88.65;101102.47;8374826;28;20167;-64
2021/12/22 17:52:23;;;;;;;55.67;26.65;;;;;;;1.03;88.73;101106.47;8374297;28;20043;-63
2021/12/22 17:56:25;;;;;;;43.47;21.48;;;;;;;1.00;88.93;101105.72;8373294;28;20562;-63
2021/12/22 18:00:25;;;;;;;44.30;22.25;;;;;;;0.97;88.99;101092.53;8364675;28;20052;-64
2021/12/22 18:04:26;;;;;;;39.90;20.63;;;;;;;1.05;88.77;101093.97;8357822;28;20045;-64
2021/12/22 18:08:27;;;;;;;39.90;19.13;;;;;;;1.12;87.84;101099.84;8372732;28;20036;-64
2021/12/22 18:12:28;;;;;;;48.83;20.58;;;;;;;1.03;88.01;101093.16;8357718;28;20051;-64
2021/12/22 18:16:29;;;;;;;55.00;29.52;;;;;;;0.93;88.55;101082.97;8377106;28;20037;-64
2021/12/22 18:20:29;;;;;;;51.58;27.67;;;;;;;0.83;89.69;101077.19;8357196;28;20059;-64
2021/12/22 18:24:30;;;;;;;42.67;22.33;;;;;;;0.80;89.91;101081.78;8360066;28;20083;-64
2021/12/22 18:28:30;;;;;;;40.42;19.38;;;;;;;0.70;90.51;101075.13;8359974;28;20044;-64
2021/12/22 18:32:32;;;;;;;39.17;20.45;;;;;;;0.74;90.26;101066.06;8374958;28;20033;-64
2021/12/22 18:36:35;;;;;;;39.85;19.60;;;;;;;0.72;90.48;101058.16;8352975;28;20493;-64
2021/12/22 18:44:43;;;;;;;43.38;20.67;;;;;;;0.69;90.51;101057.41;8372867;28;20059;-64
2021/12/22 18:48:43;;;;;;;33.67;17.08;;;;;;;0.76;90.48;101050.91;8369827;28;20044;-64
2021/12/22 18:52:44;;;;;;;37.95;19.70;;;;;;;0.74;90.35;101050.09;8376911;28;20052;-64
2021/12/22 18:56:45;;;;;;;41.65;18.23;;;;;;;0.75;90.30;101051.81;8377450;28;20037;-63
2021/12/22 19:00:48;;;;;;;39.10;18.27;;;;;;;0.78;90.07;101046.38;8374520;28;20143;-64
2021/12/22 19:04:48;;;;;;;41.22;20.63;;;;;;;0.79;90.09;101042.81;8381071;28;20504;-64
2021/12/22 19:08:49;;;;;;;40.30;20.60;;;;;;;0.75;89.98;101036.75;8372356;28;20392;-64
2021/12/22 19:12:49;;;;;;;41.33;19.50;;;;;;;0.76;89.75;101037.63;8370187;28;20173;-64
2021/12/22 19:16:50;;;;;;;42.78;20.35;;;;;;;0.75;89.68;101026.09;8380900;28;20040;-64
2021/12/22 19:20:50;;;;;;;42.85;19.77;;;;;;;0.74;89.10;101029.69;8359503;28;20042;-64